createdAt,value
2022-08-14T00:02:31.294Z,23.57
2022-08-14T00:05:01.641Z,23.55
2022-08-14T00:07:31.510Z,23.56
2022-08-14T00:10:50.100Z,23.52
2022-08-14T00:12:57.041Z,23.53
2022-08-14T00:15:37.718Z,23.38
2022-08-14T00:19:05.418Z,23.52
2022-08-14T00:21:11.278Z,23.45
2022-08-14T00:23:41.263Z,23.41
2022-08-14T00:26:23.101Z,23.44
2022-08-14T00:28:54.179Z,23.33
2022-08-14T00:31:35.041Z,23.37
2022-08-14T00:34:36.920Z,23.45
2022-08-14T00:37:06.688Z,23.42
2022-08-14T00:39:37.800Z,23.41
2022-08-14T00:42:21.172Z,23.46
2022-08-14T00:44:58.244Z,23.50
2022-08-14T00:47:28.437Z,23.46
2022-08-14T00:50:02.425Z,23.52
2022-08-14T00:52:32.545Z,23.49
2022-08-14T00:55:03.294Z,23.45
2022-08-14T00:57:35.486Z,23.33
2022-08-14T01:00:34.089Z,23.47
2022-08-14T01:03:00.414Z,23.35
2022-08-14T01:05:51.195Z,23.32
2022-08-14T01:08:57.526Z,23.32
2022-08-14T01:11:19.523Z,23.29
2022-08-14T01:13:55.716Z,23.28
2022-08-14T01:16:31.860Z,23.34
2022-08-14T01:19:21.521Z,23.29
2022-08-14T01:21:53.763Z,23.25
2022-08-14T01:24:30.613Z,23.19
2022-08-14T01:27:07.224Z,23.17
2022-08-14T01:29:58.337Z,23.24
2022-08-14T01:32:27.986Z,23.18
2022-08-14T01:35:19.762Z,23.26
2022-08-14T01:37:56.251Z,23.23
2022-08-14T01:40:36.956Z,23.11
2022-08-14T01:43:18.833Z,23.12
2022-08-14T01:45:57.455Z,23.21
2022-08-14T01:48:37.062Z,23.17
2022-08-14T01:51:19.045Z,23.10
2022-08-14T01:53:55.484Z,22.89
2022-08-14T01:56:37.218Z,22.94
2022-08-14T01:59:20.031Z,22.89
2022-08-14T02:01:58.487Z,22.91
2022-08-14T02:04:40.573Z,22.62
2022-08-14T02:07:34.886Z,22.92
2022-08-14T02:10:15.861Z,22.96
2022-08-14T02:12:48.827Z,22.90
2022-08-14T02:15:25.852Z,22.81
2022-08-14T02:17:56.296Z,22.84
2022-08-14T02:20:26.401Z,22.78
2022-08-14T02:22:56.248Z,22.75
2022-08-14T02:25:29.883Z,22.77
2022-08-14T02:28:22.754Z,22.78
2022-08-14T02:30:52.395Z,22.83
2022-08-14T02:33:23.336Z,22.80
2022-08-14T02:36:05.172Z,22.77
2022-08-14T02:38:44.871Z,22.73
2022-08-14T02:41:16.122Z,22.70
2022-08-14T02:43:48.652Z,22.62
2022-08-14T02:46:20.357Z,22.61
2022-08-14T02:49:03.089Z,22.60
2022-08-14T02:51:36.973Z,22.61
2022-08-14T02:54:08.638Z,22.66
2022-08-14T02:57:14.262Z,22.68
2022-08-14T02:59:33.833Z,22.67
2022-08-14T03:02:05.555Z,22.67
2022-08-14T03:04:36.020Z,22.66
2022-08-14T03:07:08.093Z,22.62
2022-08-14T03:10:24.318Z,22.52
2022-08-14T03:12:32.864Z,22.60
2022-08-14T03:15:14.006Z,22.58
2022-08-14T03:17:57.304Z,22.46
2022-08-14T03:20:29.198Z,22.53
2022-08-14T03:23:03.252Z,22.58
2022-08-14T03:25:37.719Z,22.53
2022-08-14T03:28:14.891Z,22.45
2022-08-14T03:31:00.237Z,22.55
2022-08-14T03:33:38.354Z,22.51
2022-08-14T03:37:51.280Z,22.52
2022-08-14T03:39:10.774Z,22.56
2022-08-14T03:41:46.380Z,22.28
2022-08-14T03:45:27.495Z,22.46
2022-08-14T03:47:08.362Z,22.57
2022-08-14T03:49:42.278Z,22.64
2022-08-14T03:52:37.711Z,22.51
2022-08-14T03:55:06.668Z,22.33
2022-08-14T03:57:37.235Z,22.26
2022-08-14T04:00:27.651Z,22.33
2022-08-14T04:03:04.807Z,22.32
2022-08-14T04:05:43.294Z,22.35
2022-08-14T04:08:29.481Z,22.41
2022-08-14T04:11:02.914Z,22.42
2022-08-14T04:13:41.874Z,22.43
2022-08-14T04:16:18.068Z,22.37
2022-08-14T04:18:50.833Z,22.34
2022-08-14T04:21:24.541Z,22.39
2022-08-14T04:23:57.846Z,22.41
2022-08-14T04:26:42.437Z,22.45
2022-08-14T04:29:15.428Z,22.56
2022-08-14T04:33:02.249Z,22.74
2022-08-14T04:34:41.925Z,22.66
2022-08-14T04:37:29.632Z,22.77
2022-08-14T04:40:15.041Z,22.82
2022-08-14T04:43:02.812Z,22.82
2022-08-14T04:45:40.918Z,22.88
2022-08-14T04:48:39.818Z,22.89
2022-08-14T04:51:05.959Z,22.95
2022-08-14T04:53:43.309Z,23.04
2022-08-14T04:56:30.975Z,23.00
2022-08-14T04:59:10.463Z,23.01
2022-08-14T05:01:48.937Z,23.14
2022-08-14T05:04:24.780Z,23.20
2022-08-14T05:06:55.641Z,23.12
2022-08-14T05:09:29.312Z,23.06
2022-08-14T05:13:13.043Z,23.16
2022-08-14T05:14:54.713Z,23.23
2022-08-14T05:17:28.670Z,23.25
2022-08-14T05:21:05.097Z,23.31
2022-08-14T05:23:01.372Z,23.30
2022-08-14T05:25:34.229Z,23.29
2022-08-14T05:28:12.440Z,23.34
2022-08-14T05:30:47.478Z,23.34
2022-08-14T05:33:19.772Z,23.35
2022-08-14T05:35:52.077Z,23.43
2022-08-14T05:38:31.354Z,23.42
2022-08-14T05:41:03.167Z,23.39
2022-08-14T05:43:41.278Z,23.43
2022-08-14T05:46:15.358Z,23.49
2022-08-14T05:48:49.183Z,23.40
2022-08-14T05:51:21.035Z,23.52
2022-08-14T05:54:00.113Z,23.53
2022-08-14T05:56:31.387Z,23.44
2022-08-14T05:59:03.115Z,23.53
2022-08-14T06:01:32.951Z,23.53
2022-08-14T06:04:04.637Z,23.50
2022-08-14T06:06:38.364Z,23.63
2022-08-14T06:09:09.685Z,23.62
2022-08-14T06:11:40.054Z,23.61
2022-08-14T06:14:21.185Z,23.61
2022-08-14T06:16:54.269Z,23.59
2022-08-14T06:19:24.057Z,23.56
2022-08-14T06:21:58.321Z,23.59
2022-08-14T06:24:30.764Z,23.58
2022-08-14T06:27:10.142Z,23.66
2022-08-14T06:29:40.969Z,23.69
2022-08-14T06:32:38.156Z,23.79
2022-08-14T06:35:02.971Z,23.89
2022-08-14T06:37:45.341Z,24.04
2022-08-14T06:40:26.665Z,24.19
2022-08-14T06:43:03.342Z,24.01
2022-08-14T06:45:34.173Z,24.40
2022-08-14T06:48:05.953Z,24.44
2022-08-14T06:50:36.499Z,24.65
2022-08-14T06:53:08.356Z,24.57
2022-08-14T06:55:40.792Z,24.55
2022-08-14T06:58:29.459Z,24.50
2022-08-14T07:01:27.064Z,24.37
2022-08-14T07:04:24.038Z,24.52
2022-08-14T07:06:59.507Z,24.76
2022-08-14T07:09:43.786Z,24.82
2022-08-14T07:12:54.637Z,24.90
2022-08-14T07:15:12.780Z,24.96
2022-08-14T07:17:47.226Z,25.17
2022-08-14T07:20:31.412Z,25.27
2022-08-14T07:23:07.718Z,25.58
2022-08-14T07:25:42.294Z,25.83
2022-08-14T07:28:20.513Z,25.97
2022-08-14T07:30:52.121Z,26.03
2022-08-14T07:33:28.909Z,26.05
2022-08-14T07:36:02.227Z,25.98
2022-08-14T07:38:37.927Z,26.01
2022-08-14T07:41:14.812Z,26.02
2022-08-14T07:43:55.129Z,26.11
2022-08-14T07:46:29.279Z,26.03
2022-08-14T07:49:01.259Z,26.11
2022-08-14T07:51:50.745Z,26.05
2022-08-14T07:54:23.580Z,26.05
2022-08-14T07:57:06.261Z,26.09
2022-08-14T07:59:41.349Z,26.27
2022-08-14T08:02:18.921Z,26.29
2022-08-14T08:04:54.593Z,26.48
2022-08-14T08:07:30.072Z,26.61
2022-08-14T08:10:46.568Z,26.39
2022-08-14T08:13:24.230Z,26.49
2022-08-14T08:15:57.349Z,26.64
2022-08-14T08:18:29.506Z,26.69
2022-08-14T08:21:01.366Z,26.72
2022-08-14T08:23:43.597Z,26.81
2022-08-14T08:26:21.344Z,26.83
2022-08-14T08:28:59.157Z,26.80
2022-08-14T08:31:32.611Z,26.81
2022-08-14T08:34:06.282Z,26.85
2022-08-14T08:36:42.583Z,26.92
2022-08-14T08:39:21.814Z,26.85
2022-08-14T08:41:53.620Z,26.93
2022-08-14T08:44:34.305Z,27.04
2022-08-14T08:47:07.794Z,27.04
2022-08-14T08:49:42.917Z,27.07
2022-08-14T08:52:25.092Z,27.00
2022-08-14T08:55:04.439Z,27.02
2022-08-14T08:57:37.581Z,26.98
2022-08-14T09:00:24.510Z,26.87
2022-08-14T09:02:59.370Z,27.06
2022-08-14T09:05:29.310Z,27.17
2022-08-14T09:08:31.194Z,27.11
2022-08-14T09:11:19.138Z,27.23
2022-08-14T09:13:52.486Z,27.15
2022-08-14T09:16:26.512Z,27.12
2022-08-14T09:18:57.021Z,26.91
2022-08-14T09:21:31.203Z,26.98
2022-08-14T09:24:29.134Z,27.10
2022-08-14T09:26:53.027Z,27.24
2022-08-14T09:29:24.455Z,27.39
2022-08-14T09:32:04.479Z,27.38
2022-08-14T09:35:04.667Z,27.49
2022-08-14T09:37:55.140Z,27.41
2022-08-14T09:40:38.787Z,27.49
2022-08-14T09:43:22.403Z,27.60
2022-08-14T09:45:53.895Z,27.62
2022-08-14T09:48:29.888Z,27.61
2022-08-14T09:54:17.964Z,27.49
2022-08-14T09:56:30.917Z,27.51
2022-08-14T09:59:15.294Z,27.64
2022-08-14T10:01:52.496Z,27.55
2022-08-14T10:04:35.000Z,27.56
2022-08-14T10:07:08.543Z,27.52
2022-08-14T10:09:57.628Z,27.53
2022-08-14T10:12:45.153Z,27.36
2022-08-14T10:15:20.723Z,27.44
2022-08-14T10:17:53.266Z,27.50
2022-08-14T10:20:41.084Z,27.40
2022-08-14T10:23:43.405Z,27.36
2022-08-14T10:26:23.148Z,27.28
2022-08-14T10:29:18.497Z,27.24
2022-08-14T10:31:59.231Z,27.27
2022-08-14T10:34:35.673Z,27.39
2022-08-14T10:37:14.549Z,27.36
2022-08-14T10:40:05.829Z,27.33
2022-08-14T10:42:43.901Z,27.33
2022-08-14T10:45:24.971Z,27.20
2022-08-14T10:48:07.941Z,27.03
2022-08-14T10:50:46.554Z,26.87
2022-08-14T10:53:28.119Z,26.72
2022-08-14T10:56:00.848Z,26.58
2022-08-14T10:58:35.001Z,26.64
2022-08-14T11:01:08.032Z,26.61
2022-08-14T11:03:55.823Z,26.41
2022-08-14T11:06:27.370Z,26.20
2022-08-14T11:08:59.106Z,26.03
2022-08-14T11:11:37.086Z,26.04
2022-08-14T11:14:09.297Z,25.94
2022-08-14T11:16:40.989Z,25.93
2022-08-14T11:19:20.731Z,25.63
2022-08-14T11:21:56.195Z,25.57
2022-08-14T11:24:54.092Z,25.45
2022-08-14T11:27:25.769Z,25.49
2022-08-14T11:30:50.315Z,25.45
2022-08-14T11:32:57.084Z,25.31
2022-08-14T11:35:44.302Z,25.17
2022-08-14T11:38:21.426Z,25.09
2022-08-14T11:40:52.794Z,24.83
2022-08-14T11:43:29.091Z,24.73
2022-08-14T11:46:03.901Z,24.65
2022-08-14T11:49:03.860Z,24.69
2022-08-14T11:51:53.537Z,24.69
2022-08-14T11:54:33.902Z,24.68
2022-08-14T11:57:07.118Z,24.58
2022-08-14T11:59:38.513Z,24.59
2022-08-14T12:03:01.521Z,24.55
2022-08-14T12:05:09.206Z,24.55
2022-08-14T12:07:49.742Z,24.47
2022-08-14T12:10:26.056Z,24.56
2022-08-14T12:13:17.824Z,24.44
2022-08-14T12:15:58.052Z,24.38
2022-08-14T12:18:34.470Z,24.28
2022-08-14T12:21:15.825Z,24.08
2022-08-14T12:24:03.604Z,24.01
2022-08-14T12:26:40.741Z,23.84
2022-08-14T12:29:14.497Z,23.70
2022-08-14T12:31:47.087Z,23.59
2022-08-14T12:34:20.494Z,23.27
2022-08-14T12:37:04.139Z,23.18
2022-08-14T12:39:40.196Z,23.14
2022-08-14T12:42:11.888Z,23.08
2022-08-14T12:45:03.921Z,22.94
2022-08-14T12:47:35.140Z,22.85
2022-08-14T12:50:05.956Z,22.83
2022-08-14T12:52:45.355Z,22.58
2022-08-14T12:56:18.812Z,22.81
2022-08-14T12:58:50.090Z,22.77
2022-08-14T13:01:21.776Z,22.90
2022-08-14T13:03:52.736Z,22.94
2022-08-14T13:06:28.319Z,22.92
2022-08-14T13:08:59.986Z,22.97
2022-08-14T13:11:40.891Z,22.98
2022-08-14T13:14:17.173Z,23.11
2022-08-14T13:16:50.295Z,23.11
2022-08-14T13:19:21.216Z,23.24
2022-08-14T13:22:04.762Z,23.33
2022-08-14T13:24:39.788Z,23.35
2022-08-14T13:27:12.444Z,23.37
2022-08-14T13:29:43.959Z,23.34
2022-08-14T13:32:19.516Z,23.42
2022-08-14T13:34:52.758Z,23.37
2022-08-14T13:37:22.927Z,23.36
2022-08-14T13:39:56.708Z,23.46
2022-08-14T13:42:30.647Z,23.58
2022-08-14T13:45:03.699Z,23.63
2022-08-14T13:47:35.499Z,23.53
2022-08-14T13:50:09.782Z,23.38
2022-08-14T13:52:52.868Z,23.45
2022-08-14T13:55:28.562Z,23.46
2022-08-14T13:58:04.324Z,23.41
2022-08-14T14:00:52.854Z,23.45
2022-08-14T14:03:30.370Z,23.44
2022-08-14T14:06:03.896Z,23.41
2022-08-14T14:08:43.609Z,23.37
2022-08-14T14:11:24.036Z,23.37
2022-08-14T14:13:56.327Z,23.44
2022-08-14T14:16:30.804Z,23.38
2022-08-14T14:19:10.443Z,23.31
2022-08-14T14:21:41.795Z,23.40
2022-08-14T14:24:15.544Z,23.20
2022-08-14T14:26:49.911Z,23.24
2022-08-14T14:29:23.969Z,23.08
2022-08-14T14:31:58.753Z,23.08
2022-08-14T14:34:34.141Z,22.89
2022-08-14T14:37:06.161Z,22.87
2022-08-14T14:39:38.026Z,22.97
2022-08-14T14:42:32.429Z,22.89
2022-08-14T14:45:14.252Z,22.80
2022-08-14T14:47:49.013Z,22.98
2022-08-14T14:50:22.387Z,22.82
2022-08-14T14:53:12.250Z,22.67
2022-08-14T14:56:46.853Z,22.62
2022-08-14T14:58:37.983Z,22.43
2022-08-14T15:01:10.348Z,22.61
2022-08-14T15:03:43.256Z,22.56
2022-08-14T15:06:17.565Z,22.53
2022-08-14T15:08:55.595Z,22.52
2022-08-14T15:11:30.394Z,22.46
2022-08-14T15:14:02.744Z,22.41
2022-08-14T15:16:52.663Z,22.46
2022-08-14T15:19:23.596Z,22.47
2022-08-14T15:21:54.890Z,22.48
2022-08-14T15:24:26.923Z,22.48
2022-08-14T15:26:58.666Z,22.47
2022-08-14T15:29:28.776Z,22.52
2022-08-14T15:32:01.099Z,22.59
2022-08-14T15:34:45.969Z,22.50
2022-08-14T15:37:23.860Z,22.40
2022-08-14T15:39:54.025Z,22.46
2022-08-14T15:42:25.113Z,22.34
2022-08-14T15:45:01.406Z,22.49
2022-08-14T15:47:33.248Z,22.42
2022-08-14T15:50:08.618Z,22.20
2022-08-14T15:52:42.963Z,22.09
2022-08-14T15:55:16.254Z,22.14
2022-08-14T15:58:01.357Z,22.12
2022-08-14T16:00:51.683Z,22.03
2022-08-14T16:03:27.144Z,21.97
2022-08-14T16:06:11.194Z,21.95
2022-08-14T16:08:58.954Z,21.86
2022-08-14T16:11:33.270Z,21.95
2022-08-14T16:14:06.776Z,22.02
2022-08-14T16:16:51.642Z,22.00
2022-08-14T16:19:31.102Z,21.97
2022-08-14T16:22:57.539Z,22.09
2022-08-14T16:25:01.916Z,21.90
2022-08-14T16:27:41.117Z,21.96
2022-08-14T16:30:20.563Z,21.99
2022-08-14T16:32:57.812Z,22.10
2022-08-14T16:35:43.207Z,22.05
2022-08-14T16:38:45.374Z,21.96
2022-08-14T16:41:27.608Z,21.88
2022-08-14T16:44:01.949Z,21.82
2022-08-14T16:46:35.280Z,21.88
2022-08-14T16:49:07.326Z,21.95
2022-08-14T16:51:39.599Z,21.95
2022-08-14T16:54:34.324Z,22.01
2022-08-14T16:57:17.062Z,21.77
2022-08-14T16:59:52.607Z,21.65
2022-08-14T17:02:35.591Z,21.85
2022-08-14T17:05:22.941Z,21.80
2022-08-14T17:08:42.568Z,21.69
2022-08-14T17:11:11.031Z,21.74
2022-08-14T17:13:58.445Z,21.52
2022-08-14T17:16:36.941Z,21.55
2022-08-14T17:19:09.836Z,21.69
2022-08-14T17:21:47.550Z,21.58
2022-08-14T17:24:56.203Z,21.42
2022-08-14T17:27:10.226Z,21.53
2022-08-14T17:32:55.518Z,21.32
2022-08-14T17:35:57.973Z,21.20
2022-08-14T17:38:38.662Z,21.24
2022-08-14T17:41:32.621Z,21.02
2022-08-14T17:44:34.359Z,21.07
2022-08-14T17:49:52.061Z,21.16
2022-08-14T17:52:34.557Z,20.95
2022-08-14T17:55:09.878Z,20.93
2022-08-14T17:57:43.913Z,20.89
2022-08-14T18:00:17.813Z,20.89
2022-08-14T18:02:51.182Z,20.86
2022-08-14T18:06:08.589Z,20.83
2022-08-14T18:08:32.203Z,20.90
2022-08-14T18:11:05.237Z,20.76
2022-08-14T18:13:50.182Z,20.80
2022-08-14T18:16:22.806Z,20.89
2022-08-14T18:18:54.995Z,20.99
2022-08-14T18:21:56.561Z,20.82
2022-08-14T18:24:28.343Z,20.76
2022-08-14T18:27:08.601Z,20.91
2022-08-14T18:29:54.751Z,20.64
2022-08-14T18:32:54.670Z,20.84
2022-08-14T18:35:46.323Z,20.82
2022-08-14T18:41:36.681Z,20.84
2022-08-14T18:44:10.355Z,20.87
2022-08-14T18:47:14.933Z,20.92
2022-08-14T18:50:27.948Z,20.81
2022-08-14T18:53:07.199Z,20.74
2022-08-14T18:55:53.762Z,20.61
2022-08-14T18:58:29.511Z,20.69
2022-08-14T19:01:06.083Z,20.49
2022-08-14T19:03:56.170Z,20.66
2022-08-14T19:06:56.437Z,20.44
2022-08-14T19:09:53.760Z,20.55
2022-08-14T19:13:04.931Z,20.71
2022-08-14T19:15:37.513Z,20.78
2022-08-14T19:18:25.858Z,20.83
2022-08-14T19:21:00.236Z,20.83
2022-08-14T19:23:42.239Z,20.63
2022-08-14T19:26:35.875Z,20.56
2022-08-14T19:29:24.098Z,20.52
2022-08-14T19:31:56.178Z,20.45
2022-08-14T19:34:52.198Z,20.65
2022-08-14T19:37:48.437Z,20.65
2022-08-14T19:40:32.228Z,20.37
2022-08-14T19:43:06.642Z,20.34
2022-08-14T19:45:40.047Z,20.59
2022-08-14T19:48:15.586Z,20.62
2022-08-14T19:50:47.236Z,20.79
2022-08-14T19:53:18.408Z,20.76
2022-08-14T19:55:59.765Z,20.74
2022-08-14T19:58:54.712Z,20.69
2022-08-14T20:01:37.270Z,20.60
2022-08-14T20:04:45.134Z,20.68
2022-08-14T20:07:04.107Z,20.77
2022-08-14T20:11:08.343Z,20.74
2022-08-14T20:12:35.266Z,20.74
2022-08-14T20:15:15.441Z,20.59
2022-08-14T20:17:52.986Z,20.47
2022-08-14T20:20:31.732Z,20.41
2022-08-14T20:23:11.110Z,20.46
2022-08-14T20:25:55.888Z,20.50
2022-08-14T20:28:35.791Z,20.41
2022-08-14T20:31:19.458Z,20.48
2022-08-14T20:34:06.984Z,20.25
2022-08-14T20:36:40.032Z,20.20
2022-08-14T20:39:15.668Z,20.25
2022-08-14T20:41:49.016Z,20.12
2022-08-14T20:44:39.699Z,20.02
2022-08-14T20:47:17.105Z,20.00
2022-08-14T20:49:47.359Z,20.23
2022-08-14T20:52:19.972Z,20.29
2022-08-14T20:54:51.881Z,20.21
2022-08-14T20:57:22.488Z,20.33
2022-08-14T20:59:56.859Z,20.31
2022-08-14T21:02:46.225Z,20.15
2022-08-14T21:05:33.389Z,20.12
2022-08-14T21:08:07.863Z,20.22
2022-08-14T21:10:44.289Z,20.27
2022-08-14T21:14:08.624Z,20.15
2022-08-14T21:16:25.910Z,20.28
2022-08-14T21:19:02.135Z,20.35
2022-08-14T21:21:40.645Z,20.39
2022-08-14T21:24:39.679Z,20.31
2022-08-14T21:27:12.847Z,20.21
2022-08-14T21:29:53.612Z,20.19
2022-08-14T21:32:47.093Z,20.06
2022-08-14T21:35:22.997Z,20.13
2022-08-14T21:37:53.888Z,20.02
2022-08-14T21:40:40.283Z,20.05
2022-08-14T21:43:18.229Z,19.94
2022-08-14T21:45:52.997Z,19.74
2022-08-14T21:48:26.372Z,19.73
2022-08-14T21:51:53.866Z,19.63
2022-08-14T21:54:00.285Z,19.84
2022-08-14T21:56:38.763Z,19.94
2022-08-14T21:59:17.511Z,19.78
2022-08-14T22:02:00.097Z,19.96
2022-08-14T22:04:40.520Z,19.91
2022-08-14T22:07:17.393Z,19.90
2022-08-14T22:09:55.193Z,19.83
2022-08-14T22:12:45.248Z,19.83
2022-08-14T22:15:21.989Z,19.78
2022-08-14T22:17:54.104Z,19.79
2022-08-14T22:20:28.163Z,19.73
2022-08-14T22:23:04.335Z,19.67
2022-08-14T22:25:41.289Z,19.63
2022-08-14T22:28:19.385Z,19.63
2022-08-14T22:30:55.078Z,19.57
2022-08-14T22:33:31.118Z,19.59
2022-08-14T22:36:25.055Z,19.59
2022-08-14T22:38:57.427Z,19.73
2022-08-14T22:41:31.504Z,19.61
2022-08-14T22:44:08.349Z,19.52
2022-08-14T22:46:43.455Z,19.56
2022-08-14T22:50:28.514Z,19.52
2022-08-14T22:52:32.559Z,19.50
2022-08-14T22:54:59.964Z,19.58
2022-08-14T22:57:37.126Z,19.40
2022-08-14T23:00:16.377Z,19.50
2022-08-14T23:02:46.797Z,19.49
2022-08-14T23:05:17.728Z,19.38
2022-08-14T23:08:59.297Z,19.44
2022-08-14T23:10:59.713Z,19.45
2022-08-14T23:13:30.629Z,19.40
2022-08-14T23:16:02.030Z,19.34
2022-08-14T23:18:33.254Z,19.44
2022-08-14T23:21:03.364Z,19.48
2022-08-14T23:23:34.458Z,19.41
2022-08-14T23:26:48.386Z,19.30
2022-08-14T23:29:03.059Z,19.24
2022-08-14T23:31:35.803Z,19.22
2022-08-14T23:34:07.730Z,19.34
2022-08-14T23:36:54.224Z,19.29
2022-08-14T23:39:30.040Z,19.11
2022-08-14T23:42:08.490Z,19.07
2022-08-14T23:44:39.740Z,19.13
2022-08-14T23:47:26.212Z,19.05
2022-08-14T23:50:03.659Z,18.89
2022-08-14T23:52:56.361Z,18.86
2022-08-14T23:55:35.291Z,18.84
2022-08-14T23:58:07.825Z,18.90
